Terminal Aerodrome Forecast
Issued by NWS Glasgow, MT

Home | Current Version | Previous Version | Text Only | Print | Product List | Glossary On
Versions: 1 2 3 4 5 6 7 8 9 10 11 12 13 14 15
000
FTUS45 KGGW 231700
TAFGGW
TAF
KGGW 231720Z 2318/2418 11016G24KT P6SM SCT200
     FM240000 11018G27KT P6SM VCTS SCT100CB
     FM240600 09014KT P6SM VCSH SCT200
     FM241200 11009KT P6SM FEW210
     FM241500 VRB04KT P6SM FEW210=

USA.gov is the U.S. government's official web portal to all federal, state and local government web resources and services.